Time;durP1;ratioP1;P1;durP2;ratioP2;P2;SDS_P1;SDS_P2;PMS_P1;PMS_P2;Temp;Humidity;BMP_temperature;BMP_pressure;BME280_temperature;BME280_humidity;BME280_pressure;Samples;Min_cycle;Max_cycle;Signal;HPM_P1;HPM_P2
2022/06/08 00:00:34;;;;;;;7.22;4.63;;;;;;;18.30;58.66;95068.69;5065388;28;20399;-79
2022/06/08 00:03:12;;;;;;;9.00;3.95;;;;;;;18.16;58.41;95063.47;5048183;28;20056;-80
2022/06/08 00:05:37;;;;;;;5.65;3.97;;;;;;;18.08;58.82;95066.50;5064975;28;20063;-79
2022/06/08 00:08:03;;;;;;;4.18;3.50;;;;;;;18.09;58.53;95068.97;5064895;28;20064;-80
2022/06/08 00:10:29;;;;;;;4.63;3.90;;;;;;;18.03;58.75;95062.59;5065704;28;20016;-79
2022/06/08 00:12:54;;;;;;;6.50;3.60;;;;;;;18.07;59.11;95052.09;5065448;28;20025;-80
2022/06/08 00:15:20;;;;;;;6.43;3.25;;;;;;;18.07;58.35;95059.44;5065561;28;20430;-80
2022/06/08 00:17:45;;;;;;;3.72;3.33;;;;;;;18.11;58.70;95060.59;5065278;28;20031;-80
2022/06/08 00:20:11;;;;;;;3.50;3.08;;;;;;;18.19;59.10;95062.16;5065466;28;20063;-80
2022/06/08 00:22:37;;;;;;;4.85;3.30;;;;;;;18.15;59.72;95064.53;5064351;28;20035;-80
2022/06/08 00:25:03;;;;;;;5.25;3.50;;;;;;;18.16;59.25;95058.06;5048098;28;20020;-80
2022/06/08 00:27:29;;;;;;;9.10;4.05;;;;;;;18.14;58.91;95063.72;5065943;28;20086;-80
2022/06/08 00:29:54;;;;;;;3.80;3.30;;;;;;;18.12;58.11;95063.09;5064707;28;20024;-80
2022/06/08 00:32:20;;;;;;;4.78;4.10;;;;;;;18.15;58.28;95056.41;5064280;28;20036;-80
2022/06/08 00:34:46;;;;;;;4.30;3.70;;;;;;;18.02;59.04;95057.41;5081489;28;20036;-80
2022/06/08 00:37:11;;;;;;;4.47;3.45;;;;;;;17.98;58.47;95050.78;5047158;28;20028;-79
2022/06/08 00:39:37;;;;;;;5.75;3.83;;;;;;;17.97;58.19;95052.69;5066012;28;20032;-80
2022/06/08 00:42:04;;;;;;;7.70;3.53;;;;;;;17.94;58.88;95050.44;5064144;28;20040;-80
2022/06/08 00:44:42;;;;;;;5.60;3.45;;;;;;;17.83;59.03;95054.75;5048011;28;20029;-80
2022/06/08 00:47:08;;;;;;;7.80;3.45;;;;;;;17.82;58.89;95046.84;5065995;28;20127;-80
2022/06/08 00:49:40;;;;;;;4.95;3.40;;;;;;;17.77;59.67;95040.25;5047771;28;20142;-80
2022/06/08 00:52:06;;;;;;;3.55;3.25;;;;;;;17.71;59.54;95045.78;5048356;28;20044;-80
2022/06/08 00:54:34;;;;;;;5.50;3.50;;;;;;;17.75;59.66;95042.38;5064126;28;20463;-80
2022/06/08 00:57:13;;;;;;;5.65;3.60;;;;;;;17.77;59.49;95034.84;5048086;28;20092;-80
2022/06/08 00:59:41;;;;;;;4.68;3.30;;;;;;;17.77;59.47;95040.25;5047899;28;20029;-80
2022/06/08 01:02:06;;;;;;;3.97;3.47;;;;;;;17.74;59.58;95040.72;5047347;28;20043;-80
2022/06/08 01:04:34;;;;;;;4.43;3.38;;;;;;;17.76;60.04;95044.03;5031143;28;20025;-80
2022/06/08 01:06:59;;;;;;;6.63;3.53;;;;;;;17.70;59.32;95034.09;5063625;28;20074;-79
2022/06/08 01:09:29;;;;;;;3.97;3.33;;;;;;;17.69;59.50;95039.75;5048289;28;20024;-79
2022/06/08 01:11:57;;;;;;;7.05;3.13;;;;;;;17.61;59.19;95044.47;5063265;28;20510;-79
2022/06/08 01:14:22;;;;;;;5.97;3.10;;;;;;;17.45;59.90;95043.22;5047953;28;20056;-80
2022/06/08 01:17:15;;;;;;;4.18;3.38;;;;;;;17.45;59.66;95042.41;5046861;28;20043;-80
2022/06/08 01:19:44;;;;;;;5.57;3.45;;;;;;;17.38;60.20;95032.47;5062667;28;20498;-80
2022/06/08 01:22:11;;;;;;;6.57;3.38;;;;;;;17.37;60.41;95041.69;5064226;28;20037;-80
2022/06/08 01:24:37;;;;;;;5.95;3.78;;;;;;;17.34;60.26;95031.28;5063633;28;20407;-80
2022/06/08 01:27:05;;;;;;;4.20;3.40;;;;;;;17.35;60.66;95027.50;5064272;28;20036;-80
2022/06/08 01:29:43;;;;;;;6.72;3.58;;;;;;;17.34;60.61;95023.16;5047063;28;20061;-80
2022/06/08 01:32:34;;;;;;;3.25;2.90;;;;;;;17.34;60.09;95023.16;5048332;28;20047;-80
2022/06/08 01:35:12;;;;;;;4.85;3.17;;;;;;;17.32;59.64;95027.13;5066602;28;20059;-80
2022/06/08 01:37:57;;;;;;;3.08;2.50;;;;;;;17.30;59.27;95024.66;5068717;28;20071;-80
2022/06/08 01:41:09;;;;;;;3.47;2.70;;;;;;;17.24;59.48;95037.25;5053434;28;20028;-79
2022/06/08 01:43:34;;;;;;;3.30;2.72;;;;;;;17.06;60.05;95038.06;5066600;28;20033;-79
2022/06/08 01:46:25;;;;;;;3.10;2.65;;;;;;;17.02;59.74;95039.59;5067948;28;20044;-79
2022/06/08 01:48:56;;;;;;;3.38;3.00;;;;;;;17.08;59.80;95036.00;5068229;28;20162;-80
2022/06/08 01:51:27;;;;;;;3.80;2.70;;;;;;;17.15;59.87;95034.03;5068671;28;20059;-80
2022/06/08 01:54:13;;;;;;;3.90;3.40;;;;;;;17.17;59.47;95042.75;5051317;28;20407;-80
2022/06/08 01:56:41;;;;;;;3.65;2.85;;;;;;;17.21;59.86;95040.44;5067891;28;20025;-81
2022/06/08 01:59:34;;;;;;;5.18;3.53;;;;;;;17.23;59.65;95045.63;5068100;28;20035;-80
2022/06/08 02:02:05;;;;;;;5.93;3.10;;;;;;;17.23;59.24;95046.47;5067439;28;20033;-80
2022/06/08 02:04:47;;;;;;;4.38;3.42;;;;;;;17.15;59.28;95034.03;5067482;28;20184;-80
2022/06/08 02:07:35;;;;;;;6.13;3.40;;;;;;;17.15;59.32;95042.16;5067019;28;20527;-80
2022/06/08 02:10:22;;;;;;;4.20;3.45;;;;;;;17.15;60.00;95033.22;5067725;28;20108;-80
2022/06/08 02:12:58;;;;;;;5.88;3.65;;;;;;;17.10;60.27;95031.19;5067079;28;20035;-79
2022/06/08 02:15:32;;;;;;;5.47;3.67;;;;;;;17.01;60.68;95024.38;5067690;28;20055;-79
2022/06/08 02:18:00;;;;;;;6.63;3.88;;;;;;;16.92;59.83;95027.44;5050829;28;20430;-81
2022/06/08 02:20:54;;;;;;;7.68;4.05;;;;;;;16.85;60.31;95021.25;5050287;28;20028;-80
2022/06/08 02:23:42;;;;;;;10.93;3.90;;;;;;;16.81;60.36;95026.28;5067537;28;20020;-80
2022/06/08 02:26:13;;;;;;;8.07;3.80;;;;;;;16.71;60.31;95017.88;5066053;28;20128;-80
2022/06/08 02:28:58;;;;;;;6.57;3.92;;;;;;;16.56;60.33;95021.78;5050885;28;20037;-80
2022/06/08 02:31:31;;;;;;;5.35;3.80;;;;;;;16.52;60.55;95019.75;5068037;28;20037;-80
2022/06/08 02:36:49;;;;;;;7.18;4.93;;;;;;;16.46;61.37;95023.38;5067522;28;19919;-80
2022/06/08 02:39:48;;;;;;;5.45;4.57;;;;;;;16.44;61.99;95018.19;5050655;28;20451;-81
2022/06/08 02:42:23;;;;;;;5.93;4.55;;;;;;;16.44;61.97;95018.19;5066938;28;20447;-80
2022/06/08 02:44:51;;;;;;;5.07;4.55;;;;;;;16.42;61.91;95021.09;5051432;28;20487;-80
2022/06/08 02:47:31;;;;;;;7.45;4.80;;;;;;;16.46;61.83;95010.63;5049348;28;20052;-80
2022/06/08 02:50:05;;;;;;;6.93;5.20;;;;;;;16.43;62.21;95017.34;5051952;28;20121;-79
2022/06/08 02:52:30;;;;;;;7.10;4.68;;;;;;;16.43;62.42;95022.75;5065956;28;20434;-80
2022/06/08 02:54:56;;;;;;;6.43;5.15;;;;;;;16.44;62.03;95029.00;5066108;28;20028;-80
2022/06/08 02:57:43;;;;;;;8.93;5.35;;;;;;;16.42;62.36;95036.50;5066019;28;20036;-80
2022/06/08 03:00:15;;;;;;;8.40;5.03;;;;;;;16.42;62.17;95044.63;5066804;28;20037;-80
2022/06/08 03:02:48;;;;;;;;;;;;;;;16.43;62.34;95041.69;5069166;28;20024;-80
2022/06/08 03:05:53;;;;;;;6.28;5.03;;;;;;;16.42;63.04;95031.94;5066180;28;19938;-80
2022/06/08 03:08:20;;;;;;;9.25;4.90;;;;;;;16.42;62.26;95042.75;5062791;28;20491;-80
2022/06/08 03:10:46;;;;;;;7.60;4.85;;;;;;;16.37;62.12;95050.72;5066960;28;20032;-80
2022/06/08 03:13:15;;;;;;;9.98;5.25;;;;;;;16.36;62.13;95049.06;5049179;28;20388;-80
2022/06/08 03:15:40;;;;;;;8.70;5.03;;;;;;;16.34;61.61;95059.28;5066560;28;20035;-80
2022/06/08 03:18:06;;;;;;;7.38;5.20;;;;;;;16.32;62.11;95058.66;5049307;28;20028;-79
2022/06/08 03:20:31;;;;;;;8.48;5.05;;;;;;;16.33;62.17;95057.59;5065694;28;20027;-80
2022/06/08 03:22:57;;;;;;;8.45;5.40;;;;;;;16.38;61.97;95055.06;5049251;28;20036;-80
2022/06/08 03:25:23;;;;;;;6.72;5.00;;;;;;;16.42;62.41;95061.72;5065295;28;20028;-81
2022/06/08 03:27:48;;;;;;;5.70;4.97;;;;;;;16.42;62.85;95053.59;5050089;28;20032;-79
2022/06/08 03:30:14;;;;;;;8.43;4.95;;;;;;;16.42;62.87;95052.75;5065644;28;20029;-79
2022/06/08 03:32:40;;;;;;;6.38;5.07;;;;;;;16.44;62.50;95051.47;5066056;28;20052;-81
2022/06/08 03:35:06;;;;;;;6.45;5.25;;;;;;;16.48;63.16;95056.44;5065355;28;20036;-80
2022/06/08 03:37:31;;;;;;;5.60;5.05;;;;;;;16.52;62.57;95054.94;5065865;28;20033;-80
2022/06/08 03:39:57;;;;;;;5.68;4.78;;;;;;;16.55;61.27;95052.63;5065316;28;20064;-79
2022/06/08 03:42:22;;;;;;;7.38;5.80;;;;;;;16.60;61.20;95059.22;5065448;28;20031;-81
2022/06/08 03:44:47;;;;;;;8.20;5.13;;;;;;;16.63;61.24;95046.09;5066619;28;20024;-80
2022/06/08 03:47:20;;;;;;;7.60;5.43;;;;;;;16.67;60.99;95052.69;5065284;28;20024;-79
2022/06/08 03:49:46;;;;;;;7.78;5.22;;;;;;;16.65;61.63;95043.97;5065495;28;20052;-79
2022/06/08 03:52:19;;;;;;;9.23;5.43;;;;;;;16.59;62.04;95042.16;5064473;28;20097;-79
2022/06/08 03:54:47;;;;;;;10.30;5.25;;;;;;;16.64;61.92;95050.44;5067751;28;20035;-80
2022/06/08 03:57:14;;;;;;;7.30;5.32;;;;;;;16.72;61.65;95045.78;5048141;28;20032;-79
2022/06/08 03:59:40;;;;;;;10.70;5.82;;;;;;;16.79;61.26;95043.81;5066257;28;20135;-80
2022/06/08 04:02:06;;;;;;;8.00;5.13;;;;;;;16.88;61.21;95055.19;5048395;28;20039;-80
2022/06/08 04:04:33;;;;;;;11.45;6.13;;;;;;;16.89;62.26;95049.56;5047719;28;20105;-79
2022/06/08 04:06:58;;;;;;;10.52;5.35;;;;;;;16.93;62.38;95048.03;5066301;28;20029;-79
2022/06/08 04:09:24;;;;;;;11.85;5.68;;;;;;;17.03;62.41;95052.91;5047563;28;20410;-80
2022/06/08 04:11:50;;;;;;;7.57;5.32;;;;;;;17.08;62.29;95054.09;5064609;28;20275;-79
2022/06/08 04:14:15;;;;;;;9.95;5.57;;;;;;;17.17;61.14;95050.06;5064226;28;20070;-80
2022/06/08 04:16:41;;;;;;;8.88;5.50;;;;;;;17.32;60.03;95046.94;5064333;28;20016;-79
2022/06/08 04:19:06;;;;;;;9.00;5.18;;;;;;;17.41;60.23;95040.16;5047710;28;20017;-79
2022/06/08 04:21:32;;;;;;;11.18;5.90;;;;;;;17.48;61.06;95041.94;5063985;28;20471;-80
2022/06/08 04:23:58;;;;;;;6.78;5.60;;;;;;;17.45;60.37;95035.09;5063867;28;21141;-80
2022/06/08 04:26:23;;;;;;;9.05;5.40;;;;;;;17.47;60.88;95037.59;5064071;28;20028;-80
2022/06/08 04:28:48;;;;;;;9.93;5.28;;;;;;;17.43;61.03;95034.50;5047826;28;20035;-80
2022/06/08 04:31:14;;;;;;;8.93;6.00;;;;;;;17.54;60.87;95038.28;5063767;28;20491;-80
2022/06/08 04:33:39;;;;;;;11.20;6.28;;;;;;;17.68;60.66;95041.66;5031010;28;20032;-80
2022/06/08 04:36:05;;;;;;;7.40;5.82;;;;;;;17.78;60.79;95035.66;5047260;28;20048;-80
2022/06/08 04:38:31;;;;;;;10.45;5.80;;;;;;;17.81;60.21;95035.22;5064271;28;20021;-79
2022/06/08 04:40:57;;;;;;;9.77;6.00;;;;;;;17.96;60.76;95031.22;5063707;28;20560;-80
2022/06/08 04:43:22;;;;;;;12.43;5.25;;;;;;;18.09;59.82;95036.41;5063803;28;20028;-80
2022/06/08 04:45:48;;;;;;;8.60;4.90;;;;;;;18.25;59.01;95034.91;5063812;28;20029;-80
2022/06/08 04:48:14;;;;;;;7.18;4.80;;;;;;;18.31;57.81;95038.59;5063503;28;20028;-79
2022/06/08 04:50:39;;;;;;;6.13;4.40;;;;;;;18.41;56.99;95030.69;5064172;28;20450;-80
2022/06/08 04:53:04;;;;;;;6.57;4.15;;;;;;;18.59;56.90;95047.06;5063473;28;20159;-80
2022/06/08 04:55:30;;;;;;;6.85;3.90;;;;;;;18.73;56.05;95036.78;5046953;28;20529;-79
2022/06/08 04:57:55;;;;;;;19.13;9.65;;;;;;;18.86;56.62;95039.22;5063044;28;20036;-79
2022/06/08 05:00:22;;;;;;;7.45;5.30;;;;;;;18.98;56.01;95043.81;5080281;28;20507;-79
2022/06/08 05:02:48;;;;;;;10.48;4.70;;;;;;;19.14;56.01;95045.00;5063416;28;20064;-80
2022/06/08 05:05:21;;;;;;;13.70;5.63;;;;;;;19.21;56.10;95047.56;5063128;28;20040;-79
2022/06/08 05:07:47;;;;;;;11.30;5.18;;;;;;;19.13;55.78;95046.91;5065070;28;20032;-79
2022/06/08 05:10:13;;;;;;;10.32;5.07;;;;;;;18.99;56.54;95037.34;5062413;28;20507;-79
2022/06/08 05:12:40;;;;;;;8.10;4.90;;;;;;;19.01;56.66;95035.19;5047219;28;20048;-79
2022/06/08 05:15:11;;;;;;;5.25;4.07;;;;;;;19.10;56.45;95032.97;5064657;28;20098;-79
2022/06/08 05:17:36;;;;;;;12.13;4.95;;;;;;;19.02;56.11;95034.13;5047069;28;20025;-79
2022/06/08 05:20:03;;;;;;;11.38;5.15;;;;;;;18.98;57.12;95035.66;5063337;28;20298;-79
2022/06/08 05:22:29;;;;;;;10.38;4.57;;;;;;;18.98;56.56;95036.50;5029961;28;20119;-79
2022/06/08 05:24:54;;;;;;;10.02;4.88;;;;;;;18.97;56.18;95044.91;5063492;28;20029;-79
2022/06/08 05:27:20;;;;;;;13.02;4.97;;;;;;;19.06;56.85;95043.44;5062969;28;20126;-79
2022/06/08 05:29:45;;;;;;;12.30;5.20;;;;;;;19.29;57.13;95047.19;5047808;28;20033;-79
2022/06/08 05:32:11;;;;;;;7.15;5.18;;;;;;;19.43;56.55;95042.28;5046454;28;20453;-79
2022/06/08 05:34:36;;;;;;;7.97;5.40;;;;;;;19.68;56.02;95045.72;5046953;28;20036;-79
2022/06/08 05:37:02;;;;;;;9.20;4.80;;;;;;;19.80;56.25;95038.31;5046557;28;20211;-79
2022/06/08 05:39:27;;;;;;;11.80;5.60;;;;;;;19.92;55.58;95049.16;5046402;28;20036;-79
2022/06/08 05:41:53;;;;;;;10.13;4.95;;;;;;;19.99;56.20;95043.56;5063164;28;20024;-78
2022/06/08 05:44:20;;;;;;;9.57;5.18;;;;;;;20.16;56.26;95049.03;5062526;28;20029;-78
2022/06/08 05:46:47;;;;;;;10.45;5.80;;;;;;;20.29;56.39;95041.59;5065369;28;20112;-78
2022/06/08 05:49:12;;;;;;;16.25;5.50;;;;;;;20.38;54.72;95049.09;5062635;28;20063;-79
2022/06/08 05:51:38;;;;;;;13.25;6.43;;;;;;;20.50;54.25;95048.19;5046640;28;20068;-78
2022/06/08 05:54:06;;;;;;;16.27;6.35;;;;;;;20.37;54.46;95043.91;5063983;28;20035;-78
2022/06/08 05:56:31;;;;;;;15.45;6.28;;;;;;;20.57;53.13;95048.81;5064371;28;20098;-79
2022/06/08 05:58:57;;;;;;;16.00;5.70;;;;;;;20.58;52.80;95041.47;5062920;28;20490;-79
2022/06/08 06:01:22;;;;;;;14.75;5.85;;;;;;;20.69;53.54;95046.00;5062476;28;20028;-78
2022/06/08 06:03:48;;;;;;;15.40;5.57;;;;;;;20.87;53.53;95039.44;5064432;28;20066;-80
2022/06/08 06:06:13;;;;;;;9.25;5.25;;;;;;;21.07;53.55;95040.00;5062392;28;20016;-79
2022/06/08 06:08:38;;;;;;;11.50;4.90;;;;;;;21.23;53.56;95038.28;5064683;28;20023;-80
2022/06/08 06:11:04;;;;;;;13.23;4.72;;;;;;;21.39;53.58;95032.97;5062693;28;20029;-79
2022/06/08 06:13:29;;;;;;;10.88;5.75;;;;;;;21.40;51.63;95027.28;5062803;28;20032;-79
2022/06/08 06:15:57;;;;;;;11.95;5.32;;;;;;;21.34;53.03;95031.84;5062656;28;20021;-79
2022/06/08 06:18:22;;;;;;;10.45;5.15;;;;;;;21.28;51.70;95021.13;5046298;28;20033;-78
2022/06/08 06:20:49;;;;;;;11.77;5.90;;;;;;;21.41;52.03;95028.09;5048109;28;20153;-79
2022/06/08 06:23:14;;;;;;;7.90;5.15;;;;;;;21.46;52.97;95025.41;5082399;28;20487;-79
2022/06/08 06:25:40;;;;;;;6.72;4.80;;;;;;;21.42;52.90;95025.13;5067917;28;20070;-80
2022/06/08 06:28:05;;;;;;;6.70;4.70;;;;;;;21.64;51.71;95020.69;5049142;28;20395;-79
2022/06/08 06:30:31;;;;;;;7.43;5.05;;;;;;;21.75;51.53;95014.25;5066509;28;20024;-79
2022/06/08 06:32:56;;;;;;;8.05;5.38;;;;;;;21.81;51.99;95015.97;5066340;28;20032;-80
2022/06/08 06:35:25;;;;;;;10.45;4.35;;;;;;;21.79;50.61;95011.84;5067260;28;20044;-80
2022/06/08 06:37:51;;;;;;;10.00;4.47;;;;;;;21.66;49.81;95013.06;5049692;28;20048;-80
2022/06/08 06:40:17;;;;;;;9.80;4.25;;;;;;;21.74;50.44;95009.88;5065856;28;20400;-80
2022/06/08 06:42:42;;;;;;;5.35;4.28;;;;;;;22.02;50.01;95007.94;5049995;28;20025;-79
2022/06/08 06:45:08;;;;;;;4.57;3.70;;;;;;;21.97;47.57;95005.19;5082691;28;20024;-80
2022/06/08 06:47:34;;;;;;;5.60;3.47;;;;;;;21.94;47.89;94994.81;5066249;28;20029;-80
2022/06/08 06:49:59;;;;;;;6.07;3.33;;;;;;;21.99;47.16;95000.28;5049151;28;20032;-80
2022/06/08 06:52:24;;;;;;;6.43;3.33;;;;;;;22.02;47.56;94994.28;5067262;28;20037;-79
2022/06/08 06:54:50;;;;;;;5.13;2.97;;;;;;;22.00;48.66;94996.47;5048988;28;20081;-78
2022/06/08 06:57:15;;;;;;;5.07;2.75;;;;;;;22.05;46.56;95001.16;5049068;28;20113;-79
2022/06/08 06:59:41;;;;;;;8.98;3.47;;;;;;;21.96;47.06;94998.91;5065659;28;20032;-80
2022/06/08 07:02:14;;;;;;;7.32;3.50;;;;;;;21.94;46.95;94994.81;5066689;28;20028;-79
2022/06/08 07:04:39;;;;;;;7.22;3.45;;;;;;;21.83;48.05;94997.44;5066012;28;20517;-80
2022/06/08 07:07:05;;;;;;;13.25;3.60;;;;;;;21.80;48.26;94987.03;5048631;28;20317;-79
2022/06/08 07:09:31;;;;;;;8.65;3.25;;;;;;;22.00;47.08;94992.91;5049001;28;20475;-79
2022/06/08 07:11:56;;;;;;;6.03;2.83;;;;;;;22.12;48.32;94982.63;5066779;28;20689;-80
2022/06/08 07:14:22;;;;;;;6.50;3.13;;;;;;;22.25;48.05;94988.75;5065374;28;20564;-80
2022/06/08 07:16:47;;;;;;;10.35;3.70;;;;;;;22.00;47.30;94993.75;5065129;28;20044;-80
2022/06/08 07:19:13;;;;;;;6.60;3.20;;;;;;;22.23;47.53;95000.75;5065602;28;20055;-79
2022/06/08 07:21:39;;;;;;;7.03;3.53;;;;;;;22.42;46.31;95002.25;5081981;28;20045;-79
2022/06/08 07:24:04;;;;;;;5.60;3.10;;;;;;;22.38;46.35;95001.09;5065253;28;20103;-80
2022/06/08 07:26:30;;;;;;;5.00;3.10;;;;;;;22.35;46.77;94992.38;5065498;28;20033;-79
2022/06/08 07:28:56;;;;;;;6.97;3.33;;;;;;;22.10;46.73;94996.53;5065108;28;20025;-79
2022/06/08 07:31:21;;;;;;;6.13;2.95;;;;;;;21.97;46.22;95003.25;5047865;28;20499;-80
2022/06/08 07:33:47;;;;;;;6.78;3.13;;;;;;;22.26;47.30;95001.31;5064579;28;20062;-80
2022/06/08 07:36:13;;;;;;;6.85;3.08;;;;;;;22.11;45.56;95005.56;5048302;28;20482;-81
2022/06/08 07:38:38;;;;;;;3.35;2.63;;;;;;;21.94;44.51;95008.44;5064774;28;20036;-81
2022/06/08 07:41:04;;;;;;;12.52;3.20;;;;;;;22.06;45.07;95006.34;5064729;28;20158;-79
2022/06/08 07:43:29;;;;;;;7.15;3.67;;;;;;;22.24;46.09;95017.97;5065186;28;20464;-80
2022/06/08 07:45:54;;;;;;;10.68;3.00;;;;;;;22.63;44.37;95016.88;5065557;28;20113;-79
2022/06/08 07:51:04;;;;;;;9.30;2.65;;;;;;;23.13;42.46;95016.59;5050707;28;20117;-80
2022/06/08 07:53:29;;;;;;;5.22;2.80;;;;;;;23.22;43.23;95005.94;5047967;28;20025;-80
2022/06/08 07:55:55;;;;;;;3.83;2.60;;;;;;;23.30;42.48;95010.06;5064699;28;20059;-79
2022/06/08 07:58:20;;;;;;;5.78;2.70;;;;;;;23.41;40.63;95006.28;5064556;28;20021;-80
2022/06/08 08:00:48;;;;;;;3.97;2.47;;;;;;;23.38;40.63;95011.44;5047949;28;20081;-80
2022/06/08 08:03:15;;;;;;;5.38;2.25;;;;;;;23.14;40.64;95001.81;5048175;28;20024;-79
2022/06/08 08:05:41;;;;;;;4.18;2.40;;;;;;;23.07;40.42;95010.25;5048515;28;20454;-79
2022/06/08 08:08:07;;;;;;;8.07;2.10;;;;;;;23.01;40.38;95000.38;5064400;28;20485;-80
2022/06/08 08:10:32;;;;;;;4.30;2.33;;;;;;;23.11;41.56;94996.03;5064374;28;20021;-80
2022/06/08 08:12:58;;;;;;;3.17;2.15;;;;;;;23.01;39.59;94997.66;5047370;28;20422;-79
2022/06/08 08:15:24;;;;;;;3.45;2.33;;;;;;;22.97;40.11;94991.09;5064230;28;20503;-80
2022/06/08 08:17:49;;;;;;;7.72;2.70;;;;;;;23.00;40.99;94986.97;5064248;28;20534;-79
2022/06/08 08:20:16;;;;;;;7.38;2.58;;;;;;;23.07;40.99;94980.16;5065287;28;20029;-79
2022/06/08 08:22:41;;;;;;;15.75;3.03;;;;;;;23.23;41.99;94977.47;5064547;28;20020;-81
2022/06/08 08:25:09;;;;;;;5.82;2.42;;;;;;;23.37;41.41;94982.44;5047121;28;20060;-79
2022/06/08 08:27:35;;;;;;;6.30;2.63;;;;;;;23.53;41.13;94970.47;5064694;28;20154;-80
2022/06/08 08:30:00;;;;;;;5.50;2.90;;;;;;;23.57;41.52;94976.22;5063809;28;20032;-80
2022/06/08 08:32:26;;;;;;;4.15;2.60;;;;;;;23.49;40.99;94974.84;5065482;28;20021;-80
2022/06/08 08:34:51;;;;;;;6.97;2.60;;;;;;;23.52;41.89;94968.81;5064011;28;20033;-81
2022/06/08 08:37:17;;;;;;;4.22;2.70;;;;;;;23.58;39.27;94961.47;5064176;28;20013;-81
2022/06/08 08:39:42;;;;;;;5.82;2.08;;;;;;;23.42;38.50;94958.72;5064296;28;20039;-80
2022/06/08 08:42:23;;;;;;;4.55;3.20;;;;;;;23.10;40.37;94956.94;5046856;28;20580;-79
2022/06/08 08:45:01;;;;;;;4.63;2.50;;;;;;;23.23;40.70;94952.88;5049710;28;20418;-80
2022/06/08 08:47:49;;;;;;;5.47;2.55;;;;;;;23.31;40.05;94957.00;5063948;28;20021;-79
2022/06/08 08:50:18;;;;;;;4.38;2.10;;;;;;;23.64;41.10;94954.91;5064676;28;20475;-79
2022/06/08 08:52:47;;;;;;;3.00;2.00;;;;;;;23.84;36.59;94950.53;5064445;28;20541;-79
2022/06/08 08:55:32;;;;;;;4.03;2.00;;;;;;;23.80;37.13;94941.19;5064631;28;20035;-80
2022/06/08 08:58:10;;;;;;;5.80;1.80;;;;;;;23.78;38.10;94949.69;5031202;28;20119;-80
2022/06/08 09:00:40;;;;;;;7.50;2.08;;;;;;;23.66;38.98;94940.94;5063761;28;20037;-79
2022/06/08 09:03:17;;;;;;;5.03;2.30;;;;;;;23.61;37.50;94944.50;5063190;28;20388;-80
2022/06/08 09:05:43;;;;;;;4.13;2.05;;;;;;;23.66;37.22;94941.75;5064485;28;20181;-82
2022/06/08 09:08:12;;;;;;;6.68;2.08;;;;;;;23.85;36.95;94945.84;5046666;28;20033;-80
2022/06/08 09:10:38;;;;;;;4.07;2.42;;;;;;;24.09;39.02;94932.44;5064162;28;20099;-79
2022/06/08 09:13:03;;;;;;;4.03;1.92;;;;;;;24.28;38.24;94940.91;5064966;28;20108;-81
2022/06/08 09:15:47;;;;;;;6.30;2.00;;;;;;;24.50;36.50;94931.56;5063733;28;20038;-79
2022/06/08 09:18:39;;;;;;;6.32;1.92;;;;;;;24.54;35.97;94929.91;5064809;28;20052;-80
2022/06/08 09:21:33;;;;;;;4.05;1.52;;;;;;;24.57;35.90;94931.25;5063582;28;20418;-80
2022/06/08 09:24:06;;;;;;;3.78;2.00;;;;;;;24.52;36.60;94925.81;5064866;28;20036;-79
2022/06/08 09:26:34;;;;;;;4.82;2.00;;;;;;;24.32;35.90;94925.59;5063272;28;20558;-80
2022/06/08 09:29:22;;;;;;;2.88;1.50;;;;;;;24.33;37.72;94920.91;5046836;28;20035;-79
2022/06/08 09:31:48;;;;;;;2.67;1.35;;;;;;;24.50;37.47;94919.78;5063556;28;20045;-79
2022/06/08 09:34:24;;;;;;;3.03;1.58;;;;;;;24.53;34.68;94924.69;5046376;28;20020;-80
2022/06/08 09:37:12;;;;;;;2.63;1.40;;;;;;;24.59;34.91;94917.25;5047105;28;20097;-77
2022/06/08 09:39:39;;;;;;;3.67;1.48;;;;;;;24.41;35.23;94916.78;5060635;28;20081;-80
2022/06/08 09:42:14;;;;;;;2.42;1.58;;;;;;;24.61;37.19;94912.34;5063237;28;20037;-80
2022/06/08 09:44:46;;;;;;;3.42;1.40;;;;;;;24.81;36.24;94915.00;5047739;28;20025;-79
2022/06/08 09:53:49;;;;;;;2.78;1.20;;;;;;;24.63;33.96;94910.97;5052395;28;20170;-79
2022/06/08 09:56:14;;;;;;;1.80;1.20;;;;;;;24.66;34.29;94907.66;5050011;28;20036;-80
2022/06/08 09:58:59;;;;;;;3.28;1.40;;;;;;;24.51;34.86;94894.81;5068769;28;20426;-79
2022/06/08 10:01:47;;;;;;;3.33;1.40;;;;;;;24.49;36.05;94891.53;5067055;28;20575;-80
2022/06/08 10:04:30;;;;;;;3.60;1.40;;;;;;;24.37;34.59;94896.53;5083521;28;20029;-80
2022/06/08 10:07:02;;;;;;;5.03;1.30;;;;;;;24.38;38.07;94895.41;5068551;28;20525;-81
2022/06/08 10:09:59;;;;;;;3.33;1.40;;;;;;;24.44;34.68;94894.28;5068149;28;20029;-79
2022/06/08 10:12:42;;;;;;;3.90;1.25;;;;;;;24.29;34.47;94893.25;5064359;28;20037;-79
2022/06/08 10:15:18;;;;;;;3.45;1.42;;;;;;;24.48;36.04;94881.69;5067307;28;20028;-79
2022/06/08 10:17:53;;;;;;;2.03;1.30;;;;;;;24.64;37.12;94881.63;5066408;28;20448;-79
2022/06/08 10:20:21;;;;;;;3.78;1.40;;;;;;;24.71;35.03;94876.66;5034045;28;20495;-80
2022/06/08 10:22:48;;;;;;;2.00;1.15;;;;;;;24.79;33.87;94875.25;5066274;28;20036;-78
2022/06/08 10:25:32;;;;;;;2.28;1.10;;;;;;;24.76;33.67;94873.06;5050131;28;20081;-79
2022/06/08 10:27:59;;;;;;;4.15;1.30;;;;;;;24.71;35.76;94871.19;5051418;28;20037;-79
2022/06/08 10:30:41;;;;;;;3.33;1.30;;;;;;;24.83;34.99;94872.78;5049441;28;20119;-80
2022/06/08 10:33:32;;;;;;;3.85;1.20;;;;;;;24.89;35.29;94869.72;5067758;28;20537;-80
2022/06/08 10:35:57;;;;;;;2.45;1.10;;;;;;;24.76;36.08;94865.66;5066223;28;20033;-79
2022/06/08 10:38:26;;;;;;;3.70;1.38;;;;;;;25.02;35.80;94867.50;5032920;28;20020;-79
2022/06/08 10:43:55;;;;;;;1.65;1.10;;;;;;;25.06;33.96;94857.59;5067960;28;20162;-79
2022/06/08 10:46:46;;;;;;;3.83;1.48;;;;;;;24.98;33.64;94867.22;5049972;28;20522;-80
2022/06/08 10:49:45;;;;;;;5.15;1.08;;;;;;;24.97;33.98;94868.34;5066454;28;20035;-79
2022/06/08 10:52:37;;;;;;;2.42;1.15;;;;;;;24.96;32.09;94854.88;5047493;28;20296;-80
2022/06/08 10:55:17;;;;;;;1.75;1.10;;;;;;;24.75;31.97;94861.28;5064277;28;20119;-80
2022/06/08 10:57:48;;;;;;;4.72;1.25;;;;;;;24.96;37.10;94866.69;5082591;28;20048;-79
2022/06/08 11:00:20;;;;;;;3.13;1.23;;;;;;;25.13;33.02;94863.59;5067850;28;20522;-79
2022/06/08 11:03:02;;;;;;;4.40;1.10;;;;;;;24.88;31.55;94854.38;5067650;28;20563;-79
2022/06/08 11:05:30;;;;;;;2.03;1.00;;;;;;;24.64;33.81;94856.94;5065645;28;20021;-79
2022/06/08 11:08:01;;;;;;;2.90;1.10;;;;;;;24.98;35.14;94859.00;5066967;28;20025;-79
2022/06/08 11:10:42;;;;;;;3.63;1.73;;;;;;;24.98;32.71;94861.75;5067362;28;20042;-79
2022/06/08 11:13:24;;;;;;;2.40;1.45;;;;;;;24.74;32.69;94840.47;5066591;28;20025;-80
2022/06/08 11:15:52;;;;;;;5.03;1.73;;;;;;;24.79;33.48;94845.09;5067013;28;20024;-79
2022/06/08 11:18:32;;;;;;;5.55;1.60;;;;;;;25.14;34.71;94842.44;5066828;28;20032;-79
2022/06/08 11:21:12;;;;;;;1.77;1.10;;;;;;;25.44;32.65;94843.31;5049213;28;20107;-78
2022/06/08 11:23:40;;;;;;;2.30;1.33;;;;;;;25.36;32.83;94835.72;5066206;28;20040;-80
2022/06/08 11:26:14;;;;;;;3.28;1.90;;;;;;;25.24;32.31;94836.06;5065173;28;20107;-78
2022/06/08 11:28:48;;;;;;;3.20;1.83;;;;;;;25.39;31.65;94829.66;5065136;28;20466;-78
2022/06/08 11:31:26;;;;;;;6.40;1.95;;;;;;;25.45;31.81;94831.25;5065316;28;20035;-80
2022/06/08 11:34:19;;;;;;;5.25;1.63;;;;;;;25.52;31.60;94815.25;5066232;28;20549;-80
2022/06/08 11:37:06;;;;;;;3.85;1.50;;;;;;;25.80;32.69;94812.84;5081591;28;20032;-78
2022/06/08 11:39:51;;;;;;;5.97;1.55;;;;;;;26.12;31.68;94807.00;5066353;28;20050;-79
2022/06/08 11:42:25;;;;;;;4.57;1.55;;;;;;;26.21;31.59;94809.94;5066745;28;20464;-79
2022/06/08 11:44:50;;;;;;;3.20;1.10;;;;;;;26.41;30.79;94806.13;5032877;28;20033;-79
2022/06/08 11:47:19;;;;;;;5.97;1.30;;;;;;;26.34;30.88;94809.28;5066157;28;20031;-79
2022/06/08 11:49:50;;;;;;;5.25;1.38;;;;;;;26.19;31.39;94801.97;5064654;28;20510;-79
2022/06/08 11:52:17;;;;;;;1.90;1.00;;;;;;;26.42;29.81;94805.84;5064080;28;20434;-79
2022/06/08 11:54:42;;;;;;;6.22;1.20;;;;;;;26.47;29.96;94793.97;5048439;28;20503;-79
2022/06/08 11:57:16;;;;;;;3.83;1.10;;;;;;;26.61;30.33;94791.31;5064373;28;20025;-78
2022/06/08 11:59:43;;;;;;;5.35;1.20;;;;;;;26.90;30.50;94789.56;5048450;28;20111;-80
2022/06/08 12:02:21;;;;;;;1.80;0.90;;;;;;;27.02;28.97;94781.69;5047855;28;20097;-78